createdAt,value
2023-02-13T17:02:29.002Z,15.40
2023-02-13T17:04:01.286Z,15.40
2023-02-13T17:05:33.633Z,11.60
2023-02-13T17:07:10.461Z,15.20
2023-02-13T17:08:42.587Z,18.60
2023-02-13T17:10:18.661Z,9.80
2023-02-13T17:11:51.729Z,15.80
2023-02-13T17:13:23.960Z,16.00
2023-02-13T17:14:57.797Z,12.00
2023-02-13T17:16:29.736Z,15.20
2023-02-13T17:18:01.772Z,12.60
2023-02-13T17:19:33.722Z,15.00
2023-02-13T17:21:05.998Z,13.00
2023-02-13T17:22:42.318Z,13.60
2023-02-13T17:24:17.172Z,13.80
2023-02-13T17:25:50.049Z,12.00
2023-02-13T17:27:22.883Z,13.60
2023-02-13T17:28:54.750Z,12.80
2023-02-13T17:30:29.740Z,12.40
2023-02-13T17:32:02.150Z,13.00
2023-02-13T17:33:38.504Z,14.60
2023-02-13T17:35:11.956Z,13.40
2023-02-13T17:36:44.052Z,13.40
2023-02-13T17:38:16.283Z,9.60
2023-02-13T17:39:48.703Z,10.40
2023-02-13T17:41:20.836Z,11.20
2023-02-13T17:42:54.691Z,11.40
2023-02-13T17:44:26.887Z,15.80
2023-02-13T17:46:01.242Z,10.80
2023-02-13T17:47:33.712Z,14.80
2023-02-13T17:49:05.750Z,12.00
2023-02-13T17:50:38.054Z,10.00
2023-02-13T17:52:13.727Z,11.80
2023-02-13T17:53:46.661Z,10.20
2023-02-13T17:55:26.590Z,13.60
2023-02-13T17:56:58.614Z,14.40
2023-02-13T17:58:30.606Z,9.00
2023-02-13T18:00:05.009Z,13.40
2023-02-13T18:01:44.464Z,14.60
2023-02-13T18:03:16.599Z,14.20
2023-02-13T18:04:48.927Z,12.80
2023-02-13T18:06:20.821Z,15.20
2023-02-13T18:07:52.843Z,17.00
2023-02-13T18:09:24.979Z,2.40
2023-02-13T18:10:57.212Z,9.00
2023-02-13T18:12:29.297Z,11.40
2023-02-13T18:14:02.337Z,9.60
2023-02-13T18:15:44.233Z,10.80
2023-02-13T18:17:16.299Z,11.20
2023-02-13T18:18:48.281Z,9.60
2023-02-13T18:20:20.917Z,9.60
2023-02-13T18:21:52.985Z,14.00
2023-02-13T18:23:24.852Z,9.00
2023-02-13T18:24:57.140Z,16.20
2023-02-13T18:26:29.218Z,24.00
2023-02-13T18:28:01.171Z,27.80
2023-02-13T18:29:36.517Z,33.40
2023-02-13T18:31:10.066Z,37.20
2023-02-13T18:32:42.126Z,46.60
2023-02-13T18:34:13.973Z,49.75
2023-02-13T18:35:46.039Z,56.50
2023-02-13T18:37:18.595Z,57.50
2023-02-13T18:38:51.553Z,69.75
2023-02-13T18:40:23.618Z,73.50
2023-02-13T18:41:55.626Z,83.50
2023-02-13T18:43:27.485Z,89.75
2023-02-13T18:44:59.374Z,96.00
2023-02-13T18:46:31.335Z,92.60
2023-02-13T18:48:03.360Z,112.50
2023-02-13T18:49:35.969Z,122.25
2023-02-13T18:51:07.910Z,124.00
2023-02-13T18:52:39.805Z,130.25
2023-02-13T18:54:12.201Z,129.00
2023-02-13T18:55:44.188Z,135.50
2023-02-13T18:57:16.198Z,142.50
2023-02-13T18:58:48.270Z,144.50
2023-02-13T19:00:22.582Z,146.50
2023-02-13T19:01:54.572Z,150.50
2023-02-13T19:03:26.516Z,150.75
2023-02-13T19:04:58.434Z,152.00
2023-02-13T19:06:30.446Z,154.00
2023-02-13T19:08:02.351Z,152.00
2023-02-13T19:09:40.367Z,147.00
2023-02-13T19:11:17.149Z,139.75
2023-02-13T19:12:49.248Z,142.75
2023-02-13T19:14:22.106Z,151.50
2023-02-13T19:15:54.127Z,156.00
2023-02-13T19:17:26.080Z,157.50
2023-02-13T19:19:01.059Z,156.25
2023-02-13T19:20:32.901Z,145.25
2023-02-13T19:22:04.821Z,147.50
2023-02-13T19:23:36.929Z,146.00
2023-02-13T19:25:08.841Z,141.00
2023-02-13T19:26:40.837Z,143.50
2023-02-13T19:28:12.841Z,134.50
2023-02-13T19:29:44.679Z,132.75
2023-02-13T19:31:29.169Z,141.00
2023-02-13T19:33:01.191Z,139.50
2023-02-13T19:34:33.151Z,128.25
2023-02-13T19:36:06.855Z,131.75
2023-02-13T19:37:44.063Z,116.25
2023-02-13T19:39:16.273Z,132.50
2023-02-13T19:40:48.122Z,125.00
2023-02-13T19:42:20.105Z,118.00
2023-02-13T19:43:53.719Z,111.25
2023-02-13T19:45:25.699Z,112.75
2023-02-13T19:46:57.625Z,107.40
2023-02-13T19:48:29.951Z,98.60
2023-02-13T19:50:02.086Z,107.20
2023-02-13T19:51:34.346Z,88.40
2023-02-13T19:53:07.834Z,94.00
2023-02-13T19:54:40.287Z,90.25
2023-02-13T19:56:12.349Z,80.75
2023-02-13T19:57:44.172Z,80.00
2023-02-13T19:59:16.116Z,88.25
2023-02-13T20:00:49.294Z,78.00
2023-02-13T20:02:21.837Z,86.25
2023-02-13T20:03:54.227Z,80.25
2023-02-13T20:05:26.206Z,77.50
2023-02-13T20:06:58.512Z,89.00
2023-02-13T20:08:30.449Z,86.50
2023-02-13T20:10:02.403Z,90.00
2023-02-13T20:11:34.328Z,87.00
2023-02-13T20:13:06.196Z,87.25
2023-02-13T20:14:38.105Z,93.75
2023-02-13T20:16:12.559Z,94.50
2023-02-13T20:17:44.789Z,90.75
2023-02-13T20:19:16.649Z,77.25
2023-02-13T20:20:48.696Z,83.33
2023-02-13T20:22:20.665Z,92.75
2023-02-13T20:23:52.745Z,92.25
2023-02-13T20:25:25.880Z,90.25
2023-02-13T20:26:59.112Z,90.00
2023-02-13T20:28:31.043Z,96.25
2023-02-13T20:30:07.283Z,91.50
2023-02-13T20:31:41.649Z,106.00
2023-02-13T20:33:13.715Z,105.00
2023-02-13T20:34:59.205Z,119.50
2023-02-13T20:36:31.994Z,134.75
2023-02-13T20:38:05.306Z,141.00
2023-02-13T20:39:37.137Z,142.50
2023-02-13T20:41:12.894Z,153.50
2023-02-13T20:42:44.843Z,160.75
2023-02-13T20:44:19.226Z,163.00
2023-02-13T20:45:51.068Z,158.75
2023-02-13T20:47:23.061Z,174.75
2023-02-13T20:48:54.894Z,182.50
2023-02-13T20:50:26.838Z,186.00
2023-02-13T20:51:58.875Z,192.67
2023-02-13T20:53:31.137Z,186.33
2023-02-13T20:55:03.311Z,241.50
2023-02-13T20:56:35.235Z,259.25
2023-02-13T20:58:07.151Z,212.33
2023-02-13T20:59:39.140Z,216.67
2023-02-13T21:01:14.387Z,215.67
2023-02-13T21:02:46.423Z,207.33
2023-02-13T21:04:20.279Z,215.33
2023-02-13T21:05:52.292Z,209.00
2023-02-13T21:07:24.187Z,215.67
2023-02-13T21:08:56.328Z,219.33
2023-02-13T21:10:28.169Z,217.00
2023-02-13T21:12:00.040Z,244.67
2023-02-13T21:13:33.249Z,225.67
2023-02-13T21:15:05.396Z,225.33
2023-02-13T21:16:39.072Z,210.33
2023-02-13T21:18:11.023Z,217.33
2023-02-13T21:19:42.906Z,221.00
2023-02-13T21:21:14.827Z,214.00
2023-02-13T21:22:47.614Z,218.33
2023-02-13T21:24:22.332Z,209.67
2023-02-13T21:25:54.314Z,212.67
2023-02-13T21:27:26.483Z,209.33
2023-02-13T21:28:58.538Z,196.00
2023-02-13T21:30:30.550Z,211.67
2023-02-13T21:32:02.631Z,214.67
2023-02-13T21:33:34.697Z,201.67
2023-02-13T21:35:07.250Z,192.00
2023-02-13T21:36:39.303Z,184.00
2023-02-13T21:38:11.221Z,199.67
2023-02-13T21:39:43.064Z,198.00
2023-02-13T21:41:16.188Z,194.67
2023-02-13T21:42:48.015Z,189.00
2023-02-13T21:44:19.969Z,191.67
2023-02-13T21:45:51.908Z,191.33
2023-02-13T21:47:23.857Z,205.67
2023-02-13T21:49:05.648Z,194.00
2023-02-13T21:50:37.912Z,178.67
2023-02-13T21:52:09.792Z,193.00
2023-02-13T21:53:41.884Z,193.67
2023-02-13T21:55:13.783Z,197.00
2023-02-13T21:56:45.949Z,229.75
2023-02-13T21:58:17.864Z,212.67
2023-02-13T21:59:50.185Z,200.67
2023-02-13T22:01:33.015Z,198.00
2023-02-13T22:03:05.040Z,179.00
2023-02-13T22:04:36.913Z,184.50
2023-02-13T22:06:10.216Z,188.50
2023-02-13T22:08:05.241Z,165.00
2023-02-13T22:09:37.069Z,179.00
2023-02-13T22:11:08.915Z,162.00
2023-02-13T22:12:40.794Z,152.25
2023-02-13T22:14:16.025Z,156.25
2023-02-13T22:15:49.041Z,138.75
2023-02-13T22:17:22.267Z,141.75
2023-02-13T22:18:54.744Z,140.25
2023-02-13T22:20:26.596Z,137.00
2023-02-13T22:21:58.656Z,144.25
2023-02-13T22:23:30.506Z,130.50
2023-02-13T22:25:02.426Z,119.00
2023-02-13T22:26:35.790Z,123.75
2023-02-13T22:28:07.665Z,120.25
2023-02-13T22:29:41.168Z,117.25
2023-02-13T22:31:13.413Z,116.25
2023-02-13T22:32:45.261Z,109.50
2023-02-13T22:34:17.244Z,100.25
2023-02-13T22:35:49.161Z,104.20
2023-02-13T22:37:21.010Z,106.40
2023-02-13T22:38:53.070Z,96.00
2023-02-13T22:40:24.993Z,100.80
2023-02-13T22:41:56.927Z,98.60
2023-02-13T22:43:28.809Z,96.60
2023-02-13T22:45:00.691Z,93.20
2023-02-13T22:46:33.034Z,83.00
2023-02-13T22:48:05.893Z,82.00
2023-02-13T22:49:37.863Z,85.50
2023-02-13T22:51:10.373Z,79.00
2023-02-13T22:52:42.261Z,75.25
2023-02-13T22:54:14.097Z,78.50
2023-02-13T22:55:45.986Z,78.75
2023-02-13T22:57:17.872Z,69.00
2023-02-13T22:58:49.873Z,69.25
2023-02-13T23:00:22.902Z,68.50
2023-02-13T23:01:54.764Z,57.00
2023-02-13T23:03:26.829Z,63.00
2023-02-13T23:04:58.707Z,57.75
2023-02-13T23:06:30.545Z,58.25
2023-02-13T23:08:02.486Z,57.25
2023-02-13T23:09:34.375Z,58.50
2023-02-13T23:11:26.765Z,62.75
2023-02-13T23:12:58.678Z,56.75
2023-02-13T23:14:30.605Z,55.25
2023-02-13T23:16:02.445Z,55.00
2023-02-13T23:17:53.150Z,54.75
2023-02-13T23:19:25.622Z,58.50
2023-02-13T23:20:57.748Z,55.50
2023-02-13T23:22:29.704Z,53.25
2023-02-13T23:24:01.598Z,53.50
2023-02-13T23:25:34.028Z,47.00
2023-02-13T23:27:05.942Z,52.00
2023-02-13T23:28:37.768Z,48.50
2023-02-13T23:30:10.627Z,48.00
2023-02-13T23:31:42.587Z,49.00
2023-02-13T23:33:14.509Z,57.50
2023-02-13T23:34:46.509Z,67.00
